Tancred — LALX4 — position and weather

sailwx.info

Track history (hours):
 
Tides and Currents Weather Stations Pressure Air Temp Water Temp Dewpoint Dewpoint Depression Visibility Wind Speed Wind Dir Waves Ship Positions

Tancred

Last reported at 2015-Mar-04 13:24 UTC. Time now 2015-Apr-01 04:41 UTC.
Position N 01°17' E 104°00'.
Warning: this ship's position is 27 days out of date.

Length 190 m; draft 8.5 m.

Type: Cargo ship. MMSI: 258787000.

Date/timePositionNaut miles runAvg speedWind from/ knotsBaromVisibWave heightAir tempDewpointWater temp
2015-Mar-04 13:24N 01°17' E 104°00'0 0.0
2015-Mar-04 11:30N 01°17' E 104°00'0 0.0
2015-Mar-04 09:18N 01°17' E 104°00'0 0.1
2015-Mar-04 08:24N 01°17' E 104°00'0 0.0
2015-Mar-04 07:24N 01°17' E 104°00'0 0.0
2015-Mar-04 06:24N 01°17' E 104°00'0 0.1
2015-Mar-04 04:06N 01°17' E 103°60'0 0.0
2015-Mar-04 03:12N 01°17' E 103°60'0 0.0
2015-Mar-04 02:12N 01°17' E 103°60'0 0.0
2015-Mar-04 00:24N 01°17' E 103°60'0 0.0
2015-Mar-03 23:31N 01°17' E 103°60'2 1.8
2015-Mar-03 22:33N 01°16' E 103°59'6 6.2
2015-Mar-03 21:33N 01°17' E 104°05'  
2015-Feb-25 06:30N 33°50' E 130°02'1213.0
2015-Feb-25 05:33N 33°43' E 130°15'8 8.2
2015-Feb-25 04:33N 33°38' E 130°22'2 2.0
2015-Feb-25 03:31N 33°37' E 130°24'0 0.0
2015-Feb-25 02:31N 33°37' E 130°24'0 0.0
2015-Feb-25 01:33N 33°37' E 130°24'0 0.0
2015-Feb-25 00:33N 33°37' E 130°24'0 0.0
2015-Feb-24 23:33N 33°37' E 130°24'1 0.7
2015-Feb-24 22:33N 33°37' E 130°24'8 8.1
2015-Feb-24 21:33N 33°42' E 130°15'9 8.8
2015-Feb-24 20:33N 33°50' E 130°14'1311.0
2015-Feb-24 19:21N 34°03' E 130°17'16 8.1
2015-Feb-24 17:22N 34°02' E 130°37'1111.2
2015-Feb-24 16:24N 34°02' E 130°50'  
Track history (hours):
 
Tides and Currents Weather Stations Pressure Air Temp Water Temp Dewpoint Dewpoint Depression Visibility Wind Speed Wind Dir Waves Ship Positions

Tancred

Last reported at 2015-Mar-04 13:24 UTC. Time now 2015-Apr-01 04:41 UTC.
Position N 01°17' E 104°00'.
Warning: this ship's position is 27 days out of date.

Length 190 m; draft 8.5 m.

Type: Cargo ship. MMSI: 258787000.

Date/timePositionNaut miles runAvg speedWind from/ knotsBaromVisibWave heightAir tempDewpointWater temp
2015-Mar-04 13:24N 01°17' E 104°00'0 0.0
2015-Mar-04 11:30N 01°17' E 104°00'0 0.0
2015-Mar-04 09:18N 01°17' E 104°00'0 0.1
2015-Mar-04 08:24N 01°17' E 104°00'0 0.0
2015-Mar-04 07:24N 01°17' E 104°00'0 0.0
2015-Mar-04 06:24N 01°17' E 104°00'0 0.1
2015-Mar-04 04:06N 01°17' E 103°60'0 0.0
2015-Mar-04 03:12N 01°17' E 103°60'0 0.0
2015-Mar-04 02:12N 01°17' E 103°60'0 0.0
2015-Mar-04 00:24N 01°17' E 103°60'0 0.0
2015-Mar-03 23:31N 01°17' E 103°60'2 1.8
2015-Mar-03 22:33N 01°16' E 103°59'6 6.2
2015-Mar-03 21:33N 01°17' E 104°05'  
2015-Feb-25 06:30N 33°50' E 130°02'1213.0
2015-Feb-25 05:33N 33°43' E 130°15'8 8.2
2015-Feb-25 04:33N 33°38' E 130°22'2 2.0
2015-Feb-25 03:31N 33°37' E 130°24'0 0.0
2015-Feb-25 02:31N 33°37' E 130°24'0 0.0
2015-Feb-25 01:33N 33°37' E 130°24'0 0.0
2015-Feb-25 00:33N 33°37' E 130°24'0 0.0
2015-Feb-24 23:33N 33°37' E 130°24'1 0.7
2015-Feb-24 22:33N 33°37' E 130°24'8 8.1
2015-Feb-24 21:33N 33°42' E 130°15'9 8.8
2015-Feb-24 20:33N 33°50' E 130°14'1311.0
2015-Feb-24 19:21N 34°03' E 130°17'16 8.1
2015-Feb-24 17:22N 34°02' E 130°37'1111.2
2015-Feb-24 16:24N 34°02' E 130°50'  

Dump ship's entire track history